sensor_id;sensor_type;location;lat;lon;timestamp;temperature;humidity
61167;DHT22;47038;50.808;3.468;2022-09-21T00:01:58;12.50;99.90
61167;DHT22;47038;50.808;3.468;2022-09-21T00:04:24;12.50;99.90
61167;DHT22;47038;50.808;3.468;2022-09-21T00:06:50;12.50;99.90
61167;DHT22;47038;50.808;3.468;2022-09-21T00:09:15;12.50;99.90
61167;DHT22;47038;50.808;3.468;2022-09-21T00:11:41;12.50;99.90
61167;DHT22;47038;50.808;3.468;2022-09-21T00:14:08;12.50;99.90
61167;DHT22;47038;50.808;3.468;2022-09-21T00:16:34;12.40;99.90
61167;DHT22;47038;50.808;3.468;2022-09-21T00:19:00;12.40;99.90
61167;DHT22;47038;50.808;3.468;2022-09-21T00:21:26;12.50;99.90
61167;DHT22;47038;50.808;3.468;2022-09-21T00:23:52;12.40;99.90
61167;DHT22;47038;50.808;3.468;2022-09-21T00:26:19;12.40;99.90
61167;DHT22;47038;50.808;3.468;2022-09-21T00:28:45;12.40;99.90
61167;DHT22;47038;50.808;3.468;2022-09-21T00:31:12;12.40;99.90
61167;DHT22;47038;50.808;3.468;2022-09-21T00:33:38;12.40;99.90
61167;DHT22;47038;50.808;3.468;2022-09-21T00:36:05;12.40;99.90
61167;DHT22;47038;50.808;3.468;2022-09-21T00:38:31;12.20;99.90
61167;DHT22;47038;50.808;3.468;2022-09-21T00:40:57;12.20;99.90
61167;DHT22;47038;50.808;3.468;2022-09-21T00:43:23;12.20;99.90
61167;DHT22;47038;50.808;3.468;2022-09-21T00:45:48;12.10;99.90
61167;DHT22;47038;50.808;3.468;2022-09-21T00:48:14;12.10;99.90
61167;DHT22;47038;50.808;3.468;2022-09-21T00:50:43;12.20;99.90
61167;DHT22;47038;50.808;3.468;2022-09-21T00:53:10;12.10;99.90
61167;DHT22;47038;50.808;3.468;2022-09-21T00:55:38;12.20;99.90
61167;DHT22;47038;50.808;3.468;2022-09-21T00:58:07;12.10;99.90
61167;DHT22;47038;50.808;3.468;2022-09-21T01:00:35;12.00;99.90
61167;DHT22;47038;50.808;3.468;2022-09-21T01:03:01;11.90;99.90
61167;DHT22;47038;50.808;3.468;2022-09-21T01:05:27;11.80;99.90
61167;DHT22;47038;50.808;3.468;2022-09-21T01:07:53;11.70;99.90
61167;DHT22;47038;50.808;3.468;2022-09-21T01:10:20;11.70;99.90
61167;DHT22;47038;50.808;3.468;2022-09-21T01:15:18;11.60;99.90
61167;DHT22;47038;50.808;3.468;2022-09-21T01:22:45;11.50;99.90
61167;DHT22;47038;50.808;3.468;2022-09-21T01:30:14;11.50;99.90
61167;DHT22;47038;50.808;3.468;2022-09-21T01:32:42;11.50;99.90
61167;DHT22;47038;50.808;3.468;2022-09-21T01:35:13;11.50;99.90
61167;DHT22;47038;50.808;3.468;2022-09-21T01:37:45;11.50;99.90
61167;DHT22;47038;50.808;3.468;2022-09-21T01:40:19;11.50;99.90
61167;DHT22;47038;50.808;3.468;2022-09-21T01:42:46;11.50;99.90
61167;DHT22;47038;50.808;3.468;2022-09-21T01:45:14;11.50;99.90
61167;DHT22;47038;50.808;3.468;2022-09-21T01:47:41;11.40;99.90
61167;DHT22;47038;50.808;3.468;2022-09-21T01:50:08;11.30;99.90
61167;DHT22;47038;50.808;3.468;2022-09-21T01:55:02;11.30;99.90
61167;DHT22;47038;50.808;3.468;2022-09-21T01:57:33;11.40;99.90
61167;DHT22;47038;50.808;3.468;2022-09-21T02:00:03;11.40;99.90
61167;DHT22;47038;50.808;3.468;2022-09-21T02:02:40;11.30;99.90
61167;DHT22;47038;50.808;3.468;2022-09-21T02:05:07;11.30;99.90
61167;DHT22;47038;50.808;3.468;2022-09-21T02:07:32;11.20;99.90
61167;DHT22;47038;50.808;3.468;2022-09-21T02:09:59;11.10;99.90
61167;DHT22;47038;50.808;3.468;2022-09-21T02:12:26;10.90;99.90
61167;DHT22;47038;50.808;3.468;2022-09-21T02:14:51;11.10;99.90
61167;DHT22;47038;50.808;3.468;2022-09-21T02:19:56;11.00;99.90
61167;DHT22;47038;50.808;3.468;2022-09-21T02:22:34;11.00;99.90
61167;DHT22;47038;50.808;3.468;2022-09-21T02:25:09;11.10;99.90
61167;DHT22;47038;50.808;3.468;2022-09-21T02:30:06;11.10;99.90
61167;DHT22;47038;50.808;3.468;2022-09-21T02:32:35;11.10;99.90
61167;DHT22;47038;50.808;3.468;2022-09-21T02:37:43;11.00;99.90
61167;DHT22;47038;50.808;3.468;2022-09-21T02:40:29;11.00;99.90
61167;DHT22;47038;50.808;3.468;2022-09-21T02:42:57;10.90;99.90
61167;DHT22;47038;50.808;3.468;2022-09-21T02:45:25;10.90;99.90
61167;DHT22;47038;50.808;3.468;2022-09-21T02:47:57;10.80;99.90
61167;DHT22;47038;50.808;3.468;2022-09-21T02:50:32;10.80;99.90
61167;DHT22;47038;50.808;3.468;2022-09-21T02:53:00;10.80;99.90
61167;DHT22;47038;50.808;3.468;2022-09-21T02:55:28;10.70;99.90
61167;DHT22;47038;50.808;3.468;2022-09-21T02:57:54;10.90;99.90
61167;DHT22;47038;50.808;3.468;2022-09-21T03:00:20;10.80;99.90
61167;DHT22;47038;50.808;3.468;2022-09-21T03:02:45;10.70;99.90
61167;DHT22;47038;50.808;3.468;2022-09-21T03:05:11;10.70;99.90
61167;DHT22;47038;50.808;3.468;2022-09-21T03:07:37;10.60;99.90
61167;DHT22;47038;50.808;3.468;2022-09-21T03:10:03;10.60;99.90
61167;DHT22;47038;50.808;3.468;2022-09-21T03:12:29;10.60;99.90
61167;DHT22;47038;50.808;3.468;2022-09-21T03:14:57;10.60;99.90
61167;DHT22;47038;50.808;3.468;2022-09-21T03:17:22;10.80;99.90
61167;DHT22;47038;50.808;3.468;2022-09-21T03:19:48;10.70;99.90
61167;DHT22;47038;50.808;3.468;2022-09-21T03:22:14;10.70;99.90
61167;DHT22;47038;50.808;3.468;2022-09-21T03:24:42;10.70;99.90
61167;DHT22;47038;50.808;3.468;2022-09-21T03:27:14;10.70;99.90
61167;DHT22;47038;50.808;3.468;2022-09-21T03:29:40;10.60;99.90
61167;DHT22;47038;50.808;3.468;2022-09-21T03:32:05;10.70;99.90
61167;DHT22;47038;50.808;3.468;2022-09-21T03:34:31;10.60;99.90
61167;DHT22;47038;50.808;3.468;2022-09-21T03:37:02;10.60;99.90
61167;DHT22;47038;50.808;3.468;2022-09-21T03:39:28;10.60;99.90
61167;DHT22;47038;50.808;3.468;2022-09-21T03:41:53;10.50;99.90
61167;DHT22;47038;50.808;3.468;2022-09-21T03:44:21;10.50;99.90
61167;DHT22;47038;50.808;3.468;2022-09-21T03:46:47;10.50;99.90
61167;DHT22;47038;50.808;3.468;2022-09-21T03:49:12;10.50;99.90
61167;DHT22;47038;50.808;3.468;2022-09-21T03:51:38;10.50;99.90
61167;DHT22;47038;50.808;3.468;2022-09-21T03:54:04;10.50;99.90
61167;DHT22;47038;50.808;3.468;2022-09-21T03:56:30;10.40;99.90
61167;DHT22;47038;50.808;3.468;2022-09-21T03:58:55;10.40;99.90
61167;DHT22;47038;50.808;3.468;2022-09-21T04:01:21;10.60;99.90
61167;DHT22;47038;50.808;3.468;2022-09-21T04:03:47;10.80;99.90
61167;DHT22;47038;50.808;3.468;2022-09-21T04:06:13;10.70;99.90
61167;DHT22;47038;50.808;3.468;2022-09-21T04:08:39;10.50;99.90
61167;DHT22;47038;50.808;3.468;2022-09-21T04:11:11;10.50;99.90
61167;DHT22;47038;50.808;3.468;2022-09-21T04:13:37;10.50;99.90
61167;DHT22;47038;50.808;3.468;2022-09-21T04:16:05;10.40;99.90
61167;DHT22;47038;50.808;3.468;2022-09-21T04:18:32;10.60;99.90
61167;DHT22;47038;50.808;3.468;2022-09-21T04:20:58;10.60;99.90
61167;DHT22;47038;50.808;3.468;2022-09-21T04:23:23;10.40;99.90
61167;DHT22;47038;50.808;3.468;2022-09-21T04:25:49;10.20;99.90
61167;DHT22;47038;50.808;3.468;2022-09-21T04:28:17;10.30;99.90
61167;DHT22;47038;50.808;3.468;2022-09-21T04:30:43;10.20;99.90
61167;DHT22;47038;50.808;3.468;2022-09-21T04:33:09;10.10;99.90
61167;DHT22;47038;50.808;3.468;2022-09-21T04:35:34;10.20;99.90
61167;DHT22;47038;50.808;3.468;2022-09-21T04:38:00;10.20;99.90
61167;DHT22;47038;50.808;3.468;2022-09-21T04:40:26;10.30;99.90
61167;DHT22;47038;50.808;3.468;2022-09-21T04:42:52;10.40;99.90
61167;DHT22;47038;50.808;3.468;2022-09-21T04:45:18;10.40;99.90
61167;DHT22;47038;50.808;3.468;2022-09-21T04:47:44;10.40;99.90
61167;DHT22;47038;50.808;3.468;2022-09-21T04:50:10;10.30;99.90
61167;DHT22;47038;50.808;3.468;2022-09-21T04:52:35;10.30;99.90
61167;DHT22;47038;50.808;3.468;2022-09-21T04:55:01;10.30;99.90
61167;DHT22;47038;50.808;3.468;2022-09-21T04:57:26;10.30;99.90
61167;DHT22;47038;50.808;3.468;2022-09-21T04:59:52;10.30;99.90
61167;DHT22;47038;50.808;3.468;2022-09-21T05:02:18;10.30;99.90
61167;DHT22;47038;50.808;3.468;2022-09-21T05:04:43;10.40;99.90
61167;DHT22;47038;50.808;3.468;2022-09-21T05:07:09;10.20;99.90
61167;DHT22;47038;50.808;3.468;2022-09-21T05:09:34;10.10;99.90
61167;DHT22;47038;50.808;3.468;2022-09-21T05:12:18;10.20;99.90
61167;DHT22;47038;50.808;3.468;2022-09-21T05:14:44;10.20;99.90
61167;DHT22;47038;50.808;3.468;2022-09-21T05:17:10;10.20;99.90
61167;DHT22;47038;50.808;3.468;2022-09-21T05:19:36;10.30;99.90
61167;DHT22;47038;50.808;3.468;2022-09-21T05:22:01;10.20;99.90
61167;DHT22;47038;50.808;3.468;2022-09-21T05:24:27;10.40;99.90
61167;DHT22;47038;50.808;3.468;2022-09-21T05:26:52;10.30;99.90
61167;DHT22;47038;50.808;3.468;2022-09-21T05:29:18;10.30;99.90
61167;DHT22;47038;50.808;3.468;2022-09-21T05:36:58;10.20;99.90
61167;DHT22;47038;50.808;3.468;2022-09-21T05:39:25;10.30;99.90
61167;DHT22;47038;50.808;3.468;2022-09-21T05:41:51;10.40;99.90
61167;DHT22;47038;50.808;3.468;2022-09-21T05:44:16;10.50;99.90
61167;DHT22;47038;50.808;3.468;2022-09-21T05:46:48;10.40;99.90
61167;DHT22;47038;50.808;3.468;2022-09-21T05:49:19;10.60;99.90
61167;DHT22;47038;50.808;3.468;2022-09-21T05:54:31;10.60;99.90
61167;DHT22;47038;50.808;3.468;2022-09-21T06:04:22;10.40;99.90
61167;DHT22;47038;50.808;3.468;2022-09-21T06:06:47;10.40;99.90
61167;DHT22;47038;50.808;3.468;2022-09-21T06:09:13;10.60;99.90
61167;DHT22;47038;50.808;3.468;2022-09-21T06:11:39;10.50;99.90
61167;DHT22;47038;50.808;3.468;2022-09-21T06:14:04;10.60;99.90
61167;DHT22;47038;50.808;3.468;2022-09-21T06:16:37;10.60;99.90
61167;DHT22;47038;50.808;3.468;2022-09-21T06:19:03;10.60;99.90
61167;DHT22;47038;50.808;3.468;2022-09-21T06:21:28;10.60;99.90
61167;DHT22;47038;50.808;3.468;2022-09-21T06:23:54;10.70;99.90
61167;DHT22;47038;50.808;3.468;2022-09-21T06:26:19;10.80;99.90
61167;DHT22;47038;50.808;3.468;2022-09-21T06:28:45;10.90;99.90
61167;DHT22;47038;50.808;3.468;2022-09-21T06:31:10;10.80;99.90
61167;DHT22;47038;50.808;3.468;2022-09-21T06:33:36;10.70;99.90
61167;DHT22;47038;50.808;3.468;2022-09-21T06:36:02;10.60;99.90
61167;DHT22;47038;50.808;3.468;2022-09-21T06:38:28;10.60;99.90
61167;DHT22;47038;50.808;3.468;2022-09-21T06:40:54;10.70;99.90
61167;DHT22;47038;50.808;3.468;2022-09-21T06:43:20;10.70;99.90
61167;DHT22;47038;50.808;3.468;2022-09-21T06:45:54;10.70;99.90
61167;DHT22;47038;50.808;3.468;2022-09-21T06:48:20;10.90;99.90
61167;DHT22;47038;50.808;3.468;2022-09-21T06:50:46;11.20;99.90
61167;DHT22;47038;50.808;3.468;2022-09-21T06:53:12;11.20;99.90
61167;DHT22;47038;50.808;3.468;2022-09-21T06:55:39;11.10;99.90
61167;DHT22;47038;50.808;3.468;2022-09-21T06:58:04;11.40;99.90
61167;DHT22;47038;50.808;3.468;2022-09-21T07:00:30;11.40;99.90
61167;DHT22;47038;50.808;3.468;2022-09-21T07:02:56;11.40;99.90
61167;DHT22;47038;50.808;3.468;2022-09-21T07:05:21;11.60;99.90
61167;DHT22;47038;50.808;3.468;2022-09-21T07:07:47;11.60;99.90
61167;DHT22;47038;50.808;3.468;2022-09-21T07:10:12;11.60;99.90
61167;DHT22;47038;50.808;3.468;2022-09-21T07:12:38;11.70;99.90
61167;DHT22;47038;50.808;3.468;2022-09-21T07:15:04;11.80;99.90
61167;DHT22;47038;50.808;3.468;2022-09-21T07:17:30;11.90;99.90
61167;DHT22;47038;50.808;3.468;2022-09-21T07:19:56;12.00;99.90
61167;DHT22;47038;50.808;3.468;2022-09-21T07:22:21;12.10;99.90
61167;DHT22;47038;50.808;3.468;2022-09-21T07:24:47;12.30;99.90
61167;DHT22;47038;50.808;3.468;2022-09-21T07:27:12;12.20;99.90
61167;DHT22;47038;50.808;3.468;2022-09-21T07:29:38;12.30;99.90
61167;DHT22;47038;50.808;3.468;2022-09-21T07:32:03;12.40;99.90
61167;DHT22;47038;50.808;3.468;2022-09-21T07:34:33;12.80;99.90
61167;DHT22;47038;50.808;3.468;2022-09-21T07:36:58;12.90;99.90
61167;DHT22;47038;50.808;3.468;2022-09-21T07:39:24;13.10;99.90
61167;DHT22;47038;50.808;3.468;2022-09-21T07:41:49;13.20;99.90
61167;DHT22;47038;50.808;3.468;2022-09-21T07:44:15;13.30;99.90
61167;DHT22;47038;50.808;3.468;2022-09-21T07:46:41;13.50;99.90
61167;DHT22;47038;50.808;3.468;2022-09-21T07:49:06;13.70;99.90
61167;DHT22;47038;50.808;3.468;2022-09-21T07:51:32;13.90;99.90
61167;DHT22;47038;50.808;3.468;2022-09-21T07:53:57;14.00;99.90
61167;DHT22;47038;50.808;3.468;2022-09-21T07:56:23;14.10;99.90
61167;DHT22;47038;50.808;3.468;2022-09-21T07:58:49;14.20;99.90
61167;DHT22;47038;50.808;3.468;2022-09-21T08:01:33;14.30;99.90
61167;DHT22;47038;50.808;3.468;2022-09-21T08:03:59;14.30;99.90
61167;DHT22;47038;50.808;3.468;2022-09-21T08:06:26;14.50;99.90
61167;DHT22;47038;50.808;3.468;2022-09-21T08:08:51;14.50;99.90
61167;DHT22;47038;50.808;3.468;2022-09-21T08:11:18;14.60;99.90
61167;DHT22;47038;50.808;3.468;2022-09-21T08:13:46;14.80;99.90
61167;DHT22;47038;50.808;3.468;2022-09-21T08:16:12;14.70;99.90
61167;DHT22;47038;50.808;3.468;2022-09-21T08:18:39;14.90;99.90
61167;DHT22;47038;50.808;3.468;2022-09-21T08:21:05;15.00;99.90
61167;DHT22;47038;50.808;3.468;2022-09-21T08:23:31;15.10;99.90
61167;DHT22;47038;50.808;3.468;2022-09-21T08:25:59;15.20;99.90
61167;DHT22;47038;50.808;3.468;2022-09-21T08:28:26;15.20;99.90
61167;DHT22;47038;50.808;3.468;2022-09-21T08:30:52;15.20;99.90
61167;DHT22;47038;50.808;3.468;2022-09-21T08:33:17;15.40;99.90
61167;DHT22;47038;50.808;3.468;2022-09-21T08:35:50;15.40;99.90
61167;DHT22;47038;50.808;3.468;2022-09-21T08:38:15;15.50;99.90
61167;DHT22;47038;50.808;3.468;2022-09-21T08:40:41;15.60;99.90
61167;DHT22;47038;50.808;3.468;2022-09-21T08:43:07;15.70;99.70
61167;DHT22;47038;50.808;3.468;2022-09-21T08:45:37;15.70;99.30
61167;DHT22;47038;50.808;3.468;2022-09-21T08:48:04;15.80;99.40
61167;DHT22;47038;50.808;3.468;2022-09-21T08:50:45;15.70;98.20
61167;DHT22;47038;50.808;3.468;2022-09-21T08:53:17;15.80;97.90
61167;DHT22;47038;50.808;3.468;2022-09-21T08:55:43;16.00;98.10
61167;DHT22;47038;50.808;3.468;2022-09-21T08:58:20;16.20;97.50
61167;DHT22;47038;50.808;3.468;2022-09-21T09:00:46;16.00;97.90
61167;DHT22;47038;50.808;3.468;2022-09-21T09:03:28;16.20;98.10
61167;DHT22;47038;50.808;3.468;2022-09-21T09:14:04;16.90;96.00
61167;DHT22;47038;50.808;3.468;2022-09-21T09:21:43;17.20;95.00
61167;DHT22;47038;50.808;3.468;2022-09-21T09:24:17;16.90;94.90
61167;DHT22;47038;50.808;3.468;2022-09-21T09:31:44;16.90;94.40
61167;DHT22;47038;50.808;3.468;2022-09-21T09:34:21;17.10;94.10
61167;DHT22;47038;50.808;3.468;2022-09-21T09:37:32;16.80;94.50
61167;DHT22;47038;50.808;3.468;2022-09-21T09:39:37;17.00;93.70
61167;DHT22;47038;50.808;3.468;2022-09-21T09:50:24;17.10;94.00
61167;DHT22;47038;50.808;3.468;2022-09-21T09:52:52;17.30;93.90
61167;DHT22;47038;50.808;3.468;2022-09-21T09:55:21;17.40;93.00
61167;DHT22;47038;50.808;3.468;2022-09-21T09:57:47;17.10;93.40
61167;DHT22;47038;50.808;3.468;2022-09-21T10:00:17;17.50;93.80
61167;DHT22;47038;50.808;3.468;2022-09-21T10:02:50;17.70;93.30
61167;DHT22;47038;50.808;3.468;2022-09-21T10:05:23;17.80;92.50
61167;DHT22;47038;50.808;3.468;2022-09-21T10:07:49;17.80;93.00
61167;DHT22;47038;50.808;3.468;2022-09-21T10:12:53;17.80;91.90
61167;DHT22;47038;50.808;3.468;2022-09-21T10:15:19;17.80;92.40
61167;DHT22;47038;50.808;3.468;2022-09-21T10:17:45;18.00;91.60
61167;DHT22;47038;50.808;3.468;2022-09-21T10:20:15;17.80;91.30
61167;DHT22;47038;50.808;3.468;2022-09-21T10:22:45;17.50;91.70
61167;DHT22;47038;50.808;3.468;2022-09-21T10:25:16;17.60;91.80
61167;DHT22;47038;50.808;3.468;2022-09-21T10:27:43;17.70;91.30
61167;DHT22;47038;50.808;3.468;2022-09-21T10:32:54;18.20;90.70
61167;DHT22;47038;50.808;3.468;2022-09-21T10:35:21;18.30;90.80
61167;DHT22;47038;50.808;3.468;2022-09-21T10:37:46;18.70;90.00
61167;DHT22;47038;50.808;3.468;2022-09-21T10:42:43;18.20;88.70
61167;DHT22;47038;50.808;3.468;2022-09-21T10:45:15;18.20;90.00
61167;DHT22;47038;50.808;3.468;2022-09-21T10:47:42;18.20;90.20
61167;DHT22;47038;50.808;3.468;2022-09-21T10:52:46;18.40;88.00
61167;DHT22;47038;50.808;3.468;2022-09-21T10:55:16;18.60;88.10
61167;DHT22;47038;50.808;3.468;2022-09-21T10:57:42;18.70;88.40
61167;DHT22;47038;50.808;3.468;2022-09-21T11:00:25;18.80;87.80
61167;DHT22;47038;50.808;3.468;2022-09-21T11:02:57;18.60;90.40
61167;DHT22;47038;50.808;3.468;2022-09-21T11:05:35;18.70;89.80
61167;DHT22;47038;50.808;3.468;2022-09-21T11:08:13;18.80;88.10
61167;DHT22;47038;50.808;3.468;2022-09-21T11:10:55;18.90;87.80
61167;DHT22;47038;50.808;3.468;2022-09-21T11:16:12;19.20;84.60
61167;DHT22;47038;50.808;3.468;2022-09-21T11:18:44;19.30;84.90
61167;DHT22;47038;50.808;3.468;2022-09-21T11:23:46;19.80;84.40
61167;DHT22;47038;50.808;3.468;2022-09-21T11:26:16;19.60;84.90
61167;DHT22;47038;50.808;3.468;2022-09-21T11:29:17;20.00;84.60
61167;DHT22;47038;50.808;3.468;2022-09-21T11:34:10;20.50;81.60
61167;DHT22;47038;50.808;3.468;2022-09-21T11:36:59;20.30;82.30
61167;DHT22;47038;50.808;3.468;2022-09-21T11:45:01;20.30;81.40
61167;DHT22;47038;50.808;3.468;2022-09-21T11:47:39;20.10;82.50
61167;DHT22;47038;50.808;3.468;2022-09-21T11:55:06;19.70;84.10
61167;DHT22;47038;50.808;3.468;2022-09-21T11:57:39;19.00;84.30
61167;DHT22;47038;50.808;3.468;2022-09-21T12:00:16;19.30;85.20
61167;DHT22;47038;50.808;3.468;2022-09-21T12:02:49;19.10;85.40
61167;DHT22;47038;50.808;3.468;2022-09-21T12:08:31;19.70;83.70
61167;DHT22;47038;50.808;3.468;2022-09-21T12:13:56;20.20;81.20
61167;DHT22;47038;50.808;3.468;2022-09-21T12:19:00;20.00;80.50
61167;DHT22;47038;50.808;3.468;2022-09-21T12:21:29;20.40;80.10
61167;DHT22;47038;50.808;3.468;2022-09-21T12:23:56;20.20;81.10
61167;DHT22;47038;50.808;3.468;2022-09-21T12:26:42;20.40;79.80
61167;DHT22;47038;50.808;3.468;2022-09-21T12:29:30;20.40;79.30
61167;DHT22;47038;50.808;3.468;2022-09-21T12:34:21;20.00;80.80
61167;DHT22;47038;50.808;3.468;2022-09-21T12:44:54;20.70;77.90
61167;DHT22;47038;50.808;3.468;2022-09-21T12:49:49;20.50;77.80
61167;DHT22;47038;50.808;3.468;2022-09-21T12:52:25;20.70;77.40
61167;DHT22;47038;50.808;3.468;2022-09-21T12:55:00;20.70;75.10
61167;DHT22;47038;50.808;3.468;2022-09-21T13:02:42;20.30;76.50
61167;DHT22;47038;50.808;3.468;2022-09-21T13:10:21;20.40;76.70
61167;DHT22;47038;50.808;3.468;2022-09-21T13:12:51;20.20;76.30
61167;DHT22;47038;50.808;3.468;2022-09-21T13:15:25;20.30;77.20
61167;DHT22;47038;50.808;3.468;2022-09-21T13:17:59;19.70;77.60
61167;DHT22;47038;50.808;3.468;2022-09-21T13:20:25;19.60;78.30
61167;DHT22;47038;50.808;3.468;2022-09-21T13:22:56;19.80;78.10
61167;DHT22;47038;50.808;3.468;2022-09-21T13:25:23;20.00;76.50
61167;DHT22;47038;50.808;3.468;2022-09-21T13:27:59;19.90;77.30
61167;DHT22;47038;50.808;3.468;2022-09-21T13:32:54;19.90;76.30
61167;DHT22;47038;50.808;3.468;2022-09-21T13:36:03;20.10;76.40
61167;DHT22;47038;50.808;3.468;2022-09-21T13:41:01;20.80;74.80
61167;DHT22;47038;50.808;3.468;2022-09-21T13:43:47;20.80;73.20
61167;DHT22;47038;50.808;3.468;2022-09-21T13:49:00;20.90;73.30
61167;DHT22;47038;50.808;3.468;2022-09-21T13:51:26;20.80;72.80
61167;DHT22;47038;50.808;3.468;2022-09-21T13:53:54;20.80;72.90
61167;DHT22;47038;50.808;3.468;2022-09-21T13:56:23;20.80;73.60
61167;DHT22;47038;50.808;3.468;2022-09-21T13:58:51;20.50;73.00
61167;DHT22;47038;50.808;3.468;2022-09-21T14:01:20;20.30;73.00
61167;DHT22;47038;50.808;3.468;2022-09-21T14:03:55;20.40;72.90
61167;DHT22;47038;50.808;3.468;2022-09-21T14:06:23;20.50;73.80
61167;DHT22;47038;50.808;3.468;2022-09-21T14:11:29;20.10;74.30
61167;DHT22;47038;50.808;3.468;2022-09-21T14:19:02;20.00;75.80
61167;DHT22;47038;50.808;3.468;2022-09-21T14:21:28;20.30;75.10
61167;DHT22;47038;50.808;3.468;2022-09-21T14:24:07;20.40;74.00
61167;DHT22;47038;50.808;3.468;2022-09-21T14:26:34;20.30;75.20
61167;DHT22;47038;50.808;3.468;2022-09-21T14:29:14;19.90;74.90
61167;DHT22;47038;50.808;3.468;2022-09-21T14:31:41;19.70;75.60
61167;DHT22;47038;50.808;3.468;2022-09-21T14:34:11;19.50;75.70
61167;DHT22;47038;50.808;3.468;2022-09-21T14:36:41;19.50;75.80
61167;DHT22;47038;50.808;3.468;2022-09-21T14:39:15;19.50;76.40
61167;DHT22;47038;50.808;3.468;2022-09-21T14:41:52;19.90;76.20
61167;DHT22;47038;50.808;3.468;2022-09-21T14:44:19;20.10;75.80
61167;DHT22;47038;50.808;3.468;2022-09-21T14:46:49;20.40;73.50
61167;DHT22;47038;50.808;3.468;2022-09-21T14:57:08;21.10;72.90
61167;DHT22;47038;50.808;3.468;2022-09-21T14:59:57;21.10;71.80
61167;DHT22;47038;50.808;3.468;2022-09-21T15:02:27;20.80;71.00
61167;DHT22;47038;50.808;3.468;2022-09-21T15:10:34;20.40;72.60
61167;DHT22;47038;50.808;3.468;2022-09-21T15:18:32;20.30;72.90
61167;DHT22;47038;50.808;3.468;2022-09-21T15:21:01;20.30;73.60
61167;DHT22;47038;50.808;3.468;2022-09-21T15:23:29;20.40;73.60
61167;DHT22;47038;50.808;3.468;2022-09-21T15:25:58;20.40;74.00
61167;DHT22;47038;50.808;3.468;2022-09-21T15:28:34;20.40;74.20
61167;DHT22;47038;50.808;3.468;2022-09-21T15:31:00;20.10;74.90
61167;DHT22;47038;50.808;3.468;2022-09-21T15:33:26;20.00;74.80
61167;DHT22;47038;50.808;3.468;2022-09-21T15:35:51;20.00;75.30
61167;DHT22;47038;50.808;3.468;2022-09-21T15:38:31;19.90;75.50
61167;DHT22;47038;50.808;3.468;2022-09-21T15:40:58;19.80;74.70
61167;DHT22;47038;50.808;3.468;2022-09-21T15:43:24;19.70;75.70
61167;DHT22;47038;50.808;3.468;2022-09-21T15:48:20;20.00;74.60
61167;DHT22;47038;50.808;3.468;2022-09-21T15:50:48;20.00;73.00
61167;DHT22;47038;50.808;3.468;2022-09-21T15:53:19;20.00;72.80
61167;DHT22;47038;50.808;3.468;2022-09-21T15:55:46;20.20;72.30
61167;DHT22;47038;50.808;3.468;2022-09-21T15:58:16;20.10;73.00
61167;DHT22;47038;50.808;3.468;2022-09-21T16:00:54;20.40;73.00
61167;DHT22;47038;50.808;3.468;2022-09-21T16:03:20;20.40;72.70
61167;DHT22;47038;50.808;3.468;2022-09-21T16:05:48;20.30;72.80
61167;DHT22;47038;50.808;3.468;2022-09-21T16:08:25;20.40;71.60
61167;DHT22;47038;50.808;3.468;2022-09-21T16:10:52;20.50;71.60
61167;DHT22;47038;50.808;3.468;2022-09-21T16:13:18;20.30;73.20
61167;DHT22;47038;50.808;3.468;2022-09-21T16:16:08;20.50;73.20
61167;DHT22;47038;50.808;3.468;2022-09-21T16:18:50;20.40;73.40
61167;DHT22;47038;50.808;3.468;2022-09-21T16:21:29;20.20;74.00
61167;DHT22;47038;50.808;3.468;2022-09-21T16:26:56;20.00;74.20
61167;DHT22;47038;50.808;3.468;2022-09-21T16:29:23;20.10;75.10
61167;DHT22;47038;50.808;3.468;2022-09-21T16:31:50;20.00;75.50
61167;DHT22;47038;50.808;3.468;2022-09-21T16:34:30;19.70;76.40
61167;DHT22;47038;50.808;3.468;2022-09-21T16:37:01;19.60;76.80
61167;DHT22;47038;50.808;3.468;2022-09-21T16:39:27;19.40;77.40
61167;DHT22;47038;50.808;3.468;2022-09-21T16:41:57;19.20;77.80
61167;DHT22;47038;50.808;3.468;2022-09-21T16:44:26;19.10;77.60
61167;DHT22;47038;50.808;3.468;2022-09-21T16:46:56;18.80;78.80
61167;DHT22;47038;50.808;3.468;2022-09-21T16:49:23;18.80;80.00
61167;DHT22;47038;50.808;3.468;2022-09-21T16:51:50;18.90;79.80
61167;DHT22;47038;50.808;3.468;2022-09-21T16:54:19;19.20;79.60
61167;DHT22;47038;50.808;3.468;2022-09-21T16:56:49;19.10;79.40
61167;DHT22;47038;50.808;3.468;2022-09-21T16:59:15;19.00;79.70
61167;DHT22;47038;50.808;3.468;2022-09-21T17:01:43;18.90;80.20
61167;DHT22;47038;50.808;3.468;2022-09-21T17:04:09;18.90;79.90
61167;DHT22;47038;50.808;3.468;2022-09-21T17:06:37;18.90;79.80
61167;DHT22;47038;50.808;3.468;2022-09-21T17:09:46;18.90;80.10
61167;DHT22;47038;50.808;3.468;2022-09-21T17:11:53;18.70;80.70
61167;DHT22;47038;50.808;3.468;2022-09-21T17:14:23;18.70;80.80
61167;DHT22;47038;50.808;3.468;2022-09-21T17:16:54;18.60;81.10
61167;DHT22;47038;50.808;3.468;2022-09-21T17:19:20;18.70;81.20
61167;DHT22;47038;50.808;3.468;2022-09-21T17:21:46;18.60;81.80
61167;DHT22;47038;50.808;3.468;2022-09-21T17:24:12;18.60;82.00
61167;DHT22;47038;50.808;3.468;2022-09-21T17:26:38;18.70;81.90
61167;DHT22;47038;50.808;3.468;2022-09-21T17:29:18;18.70;81.30
61167;DHT22;47038;50.808;3.468;2022-09-21T17:31:50;18.60;81.90
61167;DHT22;47038;50.808;3.468;2022-09-21T17:34:19;18.40;82.50
61167;DHT22;47038;50.808;3.468;2022-09-21T17:36:46;18.20;83.00
61167;DHT22;47038;50.808;3.468;2022-09-21T17:39:12;18.00;84.60
61167;DHT22;47038;50.808;3.468;2022-09-21T17:41:45;17.90;85.00
61167;DHT22;47038;50.808;3.468;2022-09-21T17:47:11;17.60;84.70
61167;DHT22;47038;50.808;3.468;2022-09-21T17:49:38;17.50;84.70
61167;DHT22;47038;50.808;3.468;2022-09-21T17:52:07;17.40;86.00
61167;DHT22;47038;50.808;3.468;2022-09-21T17:54:52;17.20;85.70
61167;DHT22;47038;50.808;3.468;2022-09-21T17:57:39;17.00;85.70
61167;DHT22;47038;50.808;3.468;2022-09-21T18:00:19;16.90;85.50
61167;DHT22;47038;50.808;3.468;2022-09-21T18:02:45;16.80;86.50
61167;DHT22;47038;50.808;3.468;2022-09-21T18:08:02;16.70;87.40
61167;DHT22;47038;50.808;3.468;2022-09-21T18:10:29;16.70;86.60
61167;DHT22;47038;50.808;3.468;2022-09-21T18:20:31;16.20;88.80
61167;DHT22;47038;50.808;3.468;2022-09-21T18:27:52;16.10;89.40
61167;DHT22;47038;50.808;3.468;2022-09-21T18:30:20;16.00;89.40
61167;DHT22;47038;50.808;3.468;2022-09-21T18:32:52;16.00;89.30
61167;DHT22;47038;50.808;3.468;2022-09-21T18:35:39;16.00;89.60
61167;DHT22;47038;50.808;3.468;2022-09-21T18:38:20;15.80;90.10
61167;DHT22;47038;50.808;3.468;2022-09-21T18:40:50;15.80;90.20
61167;DHT22;47038;50.808;3.468;2022-09-21T18:46:03;15.70;90.30
61167;DHT22;47038;50.808;3.468;2022-09-21T18:48:37;15.60;90.40